< < Back
Terminal Aerodrome Forecast


Current Version              Previous Versions:   1  2  3  4  5  6  7  8  9  

Terminal Aerodrome Forecast

042
FTUS42 KFFC 032329
TAFATL
TAF
KATL 032329Z 0400/0506 20004KT P6SM FEW080 BKN250
     FM040300 17003KT P6SM SCT250
     FM041500 17004KT P6SM FEW050
     FM041700 16006KT P6SM SCT050
     FM050200 13005KT P6SM SKC=



Latest METAR

493
SAUS70 KWBC 040556
MTRATL
METAR KATL 040552Z 00000KT 10SM FEW075 SCT250 18/10 A3020 RMK AO2 SLP221
T01830100 10239 20183 51005


USA.gov is the U.S. government's official web portal to all federal, state and local government web resources and services.